Gaylord, MI (49735)

4:57 PM EDT on October 01, 2016 (GMT -0400)
Castlewood Drive | | Change Station

Elev 1315 ft 44.99 °N, 84.66 °W | Updated 42 seconds ago

Overcast
Overcast
57.9 °F
Feels Like 57.9 °F
N
0.0
Wind Variable Wind from ENE
Gusts 0.0 mph

Today
High -- | Low -- °F
--% Chance of Precip.
Yesterday
High -- | Low -- °F
Precip. -- in
Pressure 30.07 in
Visibility 10.0 miles
Clouds Mostly Cloudy 800 ft
Mostly Cloudy 1500 ft
Overcast 4500 ft
Dew Point 56 °F
Humidity 93%
Rainfall 0.05 in
Snow Depth Not available.
7:37 AM 7:18 PM
New Moon, 1% visible
METAR KGLR 012053Z AUTO 06007KT 10SM BKN008 BKN015 OVC045 15/13 A3006 RMK AO2 RAB02E31 CIG 007V013 SLP182 P0000 60000 T01500128 56014
Pressure 30.07 in
Visibility 10.0 miles
Clouds Mostly Cloudy 800 ft
Mostly Cloudy 1500 ft
Overcast 4500 ft
Dew Point 56 °F
Humidity 93%
Rainfall 0.05 in
Snow Depth Not available.
7:37 AM 7:18 PM
New Moon, 1% visible
METAR KGLR 012053Z AUTO 06007KT 10SM BKN008 BKN015 OVC045 15/13 A3006 RMK AO2 RAB02E31 CIG 007V013 SLP182 P0000 60000 T01500128 56014

10-Day Weather Forecast

Almanac

Astronomy

Oct. 01, 2016 Rise Set
Actual Time
Civil Twilight
Nautical Twilight
Astronomical Twilight
Moon
Length of Visible Light
Length of Day
Tomorrow will be .
, % of the Moon is Illuminated

Today's Extremes

State Highs State Lows

Community

WunderPhotos

Upload Photos

1,943,017 photos uploaded!

WunderBlog® & News

Nearby

Air Quality

  Air Quality AQ Index Pollutant
Not available.

Snow Depth

Station Depth Elevation

Earthquake Activity

City Distance Mag. Time & Date
Minimum magnitude displayed is 2.5.

Coastal Water Temperatures

Place Temperature

Stations

Nearby Weather Stations

Station Location Temp. Windchill Dew Point Humidity Wind Precip. Elev Updated Type
                   

Watches & Warnings

There are currently no watches in effect.